Brinkhaven, Ohio
Current Conditions -  °F | °C
As of 7:56 PM on Wednesday 17 Dec 2014 (Local Time) from K4I3 Reporting Station
Overcast Overcast  
Wind Chill: 16°   Ceiling: 1200
Heat Index: 27°   Visibility: 7mi
Dew Point: 25°   Wind: 13mph
Humidity: 93%   Direction: 270°W
Pressure: 30.17"   Gusts: NA
Location:  40.48°N, 82.15°W
Report Text: K4I3 180056Z AUTO 27011KT 7SM OVC012 M03/M04 A3017 RMK AO2
Loading
Personal Weather Stations






























Interactive Weather Map New forecast layout! Learn more

10-Day Weather Forecast

Advertisements
Track Severe Weather on mobile